Dames Quarter, Maryland
Current Conditions -  °F | °C
As of 10:01 AM on Wednesday 22 Oct 2014 (Local Time) from KSBY Reporting Station
Overcast Overcast  
Wind Chill: 61°   Ceiling: 1400
Heat Index: 61°   Visibility: 8mi
Dew Point: 55°   Wind: 13mph
Humidity: 82%   Direction: 350°N
Pressure: 29.8"   Gusts: NA
Location:  38.19°N, 75.9°W
Report Text: KSBY 221401Z 35011KT 8SM FEW009 OVC014 16/13 A2980 RMK AO2
Loading
Personal Weather Stations






























Interactive Weather Map
Tropical Storm Tracking
New forecast layout! Learn more

10-Day Weather Forecast

Advertisements
Track Severe Weather on mobile